Time;durP1;ratioP1;P1;durP2;ratioP2;P2;SDS_P1;SDS_P2;PMS_P1;PMS_P2;Temp;Humidity;BMP_temperature;BMP_pressure;BME280_temperature;BME280_humidity;BME280_pressure;Samples;Min_cycle;Max_cycle;Signal;HPM_P1;HPM_P2
2022/03/31 00:00:47;;;;;;;23.43;15.70;;;8.10;75.50;;;;;;5042345;28;20479;-68
2022/03/31 00:03:17;;;;;;;25.90;17.20;;;8.10;75.50;;;;;;5027059;28;20826;-69
2022/03/31 00:05:47;;;;;;;27.70;17.10;;;8.00;75.50;;;;;;5042445;28;20266;-68
2022/03/31 00:08:16;;;;;;;22.30;14.73;;;8.00;75.60;;;;;;5038318;28;20202;-69
2022/03/31 00:10:46;;;;;;;25.80;16.45;;;8.00;75.70;;;;;;5034814;28;20462;-69
2022/03/31 00:13:17;;;;;;;23.25;15.68;;;8.00;75.70;;;;;;5036326;28;20706;-69
2022/03/31 00:15:46;;;;;;;23.48;15.27;;;8.00;75.70;;;;;;5036841;28;20312;-68
2022/03/31 00:18:15;;;;;;;22.00;13.93;;;8.10;75.70;;;;;;5034498;28;20242;-69
2022/03/31 00:20:44;;;;;;;25.45;16.92;;;8.10;75.70;;;;;;5038561;28;20451;-69
2022/03/31 00:23:13;;;;;;;23.27;15.10;;;8.10;75.60;;;;;;5035400;28;20598;-69
2022/03/31 00:25:42;;;;;;;21.90;15.10;;;8.10;75.70;;;;;;5038321;28;20457;-69
2022/03/31 00:28:11;;;;;;;26.52;18.00;;;8.10;75.60;;;;;;5038889;28;20478;-69
2022/03/31 00:30:41;;;;;;;27.03;16.90;;;8.10;75.70;;;;;;5024828;28;20233;-69
2022/03/31 00:33:09;;;;;;;26.80;18.60;;;8.10;75.80;;;;;;5034972;28;20462;-69
2022/03/31 00:35:37;;;;;;;24.60;15.60;;;8.10;75.70;;;;;;5036631;28;20461;-69
2022/03/31 00:38:05;;;;;;;21.13;14.73;;;8.20;75.60;;;;;;5033934;28;20586;-68
2022/03/31 00:40:34;;;;;;;28.83;19.02;;;8.20;75.70;;;;;;5034750;28;20197;-68
2022/03/31 00:43:02;;;;;;;30.40;19.88;;;8.30;75.70;;;;;;5036494;28;20574;-68
2022/03/31 00:45:34;;;;;;;25.35;16.17;;;8.30;75.80;;;;;;5038733;28;20245;-69
2022/03/31 00:48:04;;;;;;;24.23;16.03;;;8.40;75.80;;;;;;5034068;28;20228;-68
2022/03/31 00:50:34;;;;;;;25.88;15.63;;;8.50;75.70;;;;;;5035268;28;20500;-68
2022/03/31 00:53:02;;;;;;;21.45;14.85;;;8.60;75.60;;;;;;5034418;28;20235;-69
2022/03/31 00:55:50;;;;;;;20.83;13.07;;;8.60;75.50;;;;;;5036952;28;20225;-69
2022/03/31 00:58:19;;;;;;;25.63;14.52;;;8.60;75.40;;;;;;5036286;28;20448;-68
2022/03/31 01:00:48;;;;;;;19.77;14.63;;;8.70;75.40;;;;;;5036634;28;20228;-68
2022/03/31 01:03:18;;;;;;;24.53;14.00;;;8.70;75.40;;;;;;5036901;28;21261;-69
2022/03/31 01:05:46;;;;;;;21.37;15.03;;;8.70;75.40;;;;;;5031852;28;20494;-69
2022/03/31 01:08:14;;;;;;;22.37;14.90;;;8.70;75.30;;;;;;5034202;28;20467;-68
2022/03/31 01:10:42;;;;;;;20.50;14.23;;;8.70;75.30;;;;;;5034056;28;21162;-68
2022/03/31 01:13:10;;;;;;;20.10;14.17;;;8.80;75.30;;;;;;5033252;28;20451;-68
2022/03/31 01:15:39;;;;;;;21.57;14.47;;;8.80;75.20;;;;;;5035952;28;21052;-68
2022/03/31 01:18:07;;;;;;;21.37;15.97;;;8.80;75.20;;;;;;5037492;28;20455;-68
2022/03/31 01:20:37;;;;;;;23.43;14.90;;;8.80;75.20;;;;;;5033103;28;20520;-68
2022/03/31 01:23:11;;;;;;;40.77;25.77;;;8.80;75.10;;;;;;5036671;28;20494;-68
2022/03/31 01:25:39;;;;;;;44.60;25.60;;;8.80;75.10;;;;;;5041102;28;20462;-68
2022/03/31 01:28:07;;;;;;;30.53;19.20;;;8.80;74.80;;;;;;5035090;28;21079;-68
2022/03/31 01:30:36;;;;;;;31.67;20.83;;;8.70;74.70;;;;;;5040025;28;20502;-68
2022/03/31 01:33:04;;;;;;;35.30;22.23;;;8.70;74.80;;;;;;5038406;28;20471;-69
2022/03/31 01:35:32;;;;;;;42.30;24.30;;;8.60;74.70;;;;;;5034393;28;20490;-70
2022/03/31 01:38:00;;;;;;;44.67;26.10;;;8.50;74.40;;;;;;5034605;28;20848;-70
2022/03/31 01:40:30;;;;;;;30.73;19.87;;;8.40;74.40;;;;;;5033902;28;20209;-70
2022/03/31 01:42:58;;;;;;;54.30;28.80;;;8.30;74.40;;;;;;5034777;28;20458;-71
2022/03/31 01:45:26;;;;;;;37.17;21.47;;;8.10;74.50;;;;;;5035408;28;20256;-69
2022/03/31 01:47:54;;;;;;;33.72;20.70;;;8.10;74.60;;;;;;5035923;28;20478;-70
2022/03/31 01:50:22;;;;;;;47.25;25.13;;;8.00;74.70;;;;;;5033477;28;20219;-70
2022/03/31 01:52:50;;;;;;;45.35;24.50;;;7.90;75.00;;;;;;5033961;28;20205;-69
2022/03/31 01:55:18;;;;;;;29.20;17.83;;;7.90;75.00;;;;;;5031547;28;20217;-70
2022/03/31 01:57:48;;;;;;;51.65;28.98;;;7.80;75.00;;;;;;5033160;28;20223;-70
2022/03/31 02:00:16;;;;;;;48.90;28.50;;;7.80;75.20;;;;;;5031552;28;20197;-69
2022/03/31 02:02:44;;;;;;;56.08;31.52;;;7.80;75.40;;;;;;5029948;28;20543;-69
2022/03/31 02:05:13;;;;;;;46.43;24.93;;;7.80;75.50;;;;;;5034217;28;20395;-69
2022/03/31 02:07:41;;;;;;;43.40;25.50;;;7.90;75.40;;;;;;5036888;28;20485;-70
2022/03/31 02:10:10;;;;;;;45.10;26.58;;;7.90;75.50;;;;;;5033960;28;20455;-68
2022/03/31 02:12:38;;;;;;;43.80;25.23;;;7.90;75.40;;;;;;5032417;28;20208;-70
2022/03/31 02:15:10;;;;;;;39.05;22.80;;;7.90;75.50;;;;;;5032634;28;20967;-68
2022/03/31 02:17:39;;;;;;;36.05;22.65;;;7.90;75.50;;;;;;5038202;28;20259;-69
2022/03/31 02:20:08;;;;;;;38.97;23.48;;;7.90;75.50;;;;;;5037795;28;20300;-69
2022/03/31 02:22:37;;;;;;;33.45;19.88;;;8.00;75.60;;;;;;5032124;28;20724;-69
2022/03/31 02:25:08;;;;;;;39.25;24.02;;;8.00;75.50;;;;;;5035581;28;20204;-69
2022/03/31 02:27:36;;;;;;;40.10;24.33;;;7.90;75.40;;;;;;5036487;28;20220;-68
2022/03/31 02:30:09;;;;;;;45.75;25.80;;;7.90;75.40;;;;;;5038093;28;20212;-68
2022/03/31 02:32:37;;;;;;;45.75;26.27;;;7.90;75.40;;;;;;5035567;28;20220;-68
2022/03/31 02:35:07;;;;;;;48.80;26.57;;;7.80;75.50;;;;;;5034506;28;20756;-69
2022/03/31 02:37:35;;;;;;;44.65;25.30;;;7.80;75.60;;;;;;5031073;28;20468;-68
2022/03/31 02:40:05;;;;;;;40.47;24.30;;;7.80;75.60;;;;;;5037647;28;20209;-67
2022/03/31 02:42:35;;;;;;;32.58;20.95;;;7.90;75.60;;;;;;5034274;28;20197;-69
2022/03/31 02:45:09;;;;;;;30.85;19.83;;;7.90;75.60;;;;;;5040721;28;20259;-68
2022/03/31 02:47:37;;;;;;;40.43;23.43;;;7.90;75.70;;;;;;5031151;28;20709;-68
2022/03/31 02:50:06;;;;;;;35.20;22.00;;;7.90;75.60;;;;;;5031174;28;20455;-67
2022/03/31 02:55:26;;;;;;;26.42;17.80;;;7.90;75.60;;;;;;5038544;28;20205;-68
2022/03/31 02:57:55;;;;;;;39.15;21.33;;;7.90;75.50;;;;;;5038456;28;20204;-67
2022/03/31 03:00:25;;;;;;;28.77;19.88;;;7.80;75.60;;;;;;5037467;28;20225;-68
2022/03/31 03:02:53;;;;;;;35.70;22.15;;;7.80;75.60;;;;;;5034237;28;20212;-67
2022/03/31 03:05:22;;;;;;;34.72;22.95;;;7.80;75.60;;;;;;5038627;28;20231;-68
2022/03/31 03:07:50;;;;;;;32.28;21.40;;;7.80;75.70;;;;;;5035727;28;20235;-68
2022/03/31 03:10:18;;;;;;;33.10;20.40;;;7.80;75.60;;;;;;5036970;28;20208;-68
2022/03/31 03:12:47;;;;;;;35.27;21.63;;;7.80;75.60;;;;;;5036211;28;20459;-67
2022/03/31 03:15:15;;;;;;;25.43;17.40;;;7.80;75.70;;;;;;5034999;28;20480;-68
2022/03/31 03:17:47;;;;;;;31.83;21.67;;;7.90;75.90;;;;;;5036022;28;20467;-70
2022/03/31 03:20:17;;;;;;;32.63;19.58;;;7.90;76.00;;;;;;5036621;28;20452;-69
2022/03/31 03:22:47;;;;;;;26.70;18.30;;;8.00;75.70;;;;;;5035102;28;20212;-69
2022/03/31 03:25:16;;;;;;;26.88;17.00;;;7.90;75.60;;;;;;5036040;28;20451;-70
2022/03/31 03:27:44;;;;;;;31.50;20.47;;;8.00;75.90;;;;;;5036660;28;20725;-68
2022/03/31 03:30:13;;;;;;;41.58;22.95;;;8.00;75.80;;;;;;5031205;28;20447;-68
2022/03/31 03:32:41;;;;;;;36.88;23.10;;;8.00;75.50;;;;;;5038305;28;20208;-69
2022/03/31 03:35:12;;;;;;;32.53;19.77;;;7.90;75.40;;;;;;5039524;28;20213;-68
2022/03/31 03:37:41;;;;;;;33.70;19.40;;;7.80;75.50;;;;;;5032752;28;21247;-70
2022/03/31 03:40:12;;;;;;;33.88;21.05;;;7.80;75.50;;;;;;5033722;28;20981;-70
2022/03/31 03:42:41;;;;;;;34.03;21.33;;;7.80;75.50;;;;;;5033254;28;20213;-69
2022/03/31 03:45:11;;;;;;;36.53;22.10;;;7.70;75.30;;;;;;5040349;28;20666;-68
2022/03/31 03:47:39;;;;;;;28.27;18.02;;;7.50;75.40;;;;;;5037098;28;20339;-68
2022/03/31 03:50:08;;;;;;;32.95;22.00;;;7.50;75.50;;;;;;5038940;28;20209;-70
2022/03/31 03:52:37;;;;;;;31.30;19.58;;;7.40;75.70;;;;;;5038536;28;20298;-69
2022/03/31 03:55:07;;;;;;;34.72;22.98;;;7.30;75.70;;;;;;5040115;28;20201;-69
2022/03/31 03:57:35;;;;;;;34.70;21.15;;;7.20;75.80;;;;;;5041103;28;20228;-67
2022/03/31 04:00:05;;;;;;;33.33;21.35;;;7.20;75.90;;;;;;5040702;28;20212;-67
2022/03/31 04:02:33;;;;;;;38.65;25.48;;;7.20;76.00;;;;;;5036597;28;20251;-69
2022/03/31 04:05:01;;;;;;;32.40;21.35;;;7.20;76.20;;;;;;5041557;28;20673;-68
2022/03/31 04:07:29;;;;;;;35.55;21.00;;;7.20;76.30;;;;;;5038338;28;20248;-68
2022/03/31 04:09:58;;;;;;;30.05;20.10;;;7.20;76.20;;;;;;5021386;28;20224;-68
2022/03/31 04:12:26;;;;;;;33.90;21.27;;;7.20;76.40;;;;;;5035803;28;20228;-68
2022/03/31 04:14:54;;;;;;;34.38;21.05;;;7.30;76.40;;;;;;5035607;28;20212;-69
2022/03/31 04:17:22;;;;;;;30.27;19.40;;;7.30;76.40;;;;;;5038561;28;20236;-70
2022/03/31 04:19:50;;;;;;;32.03;20.77;;;7.30;76.30;;;;;;5036579;28;20201;-70
2022/03/31 04:22:18;;;;;;;35.35;21.83;;;7.30;76.30;;;;;;5037622;28;20196;-70
2022/03/31 04:24:46;;;;;;;32.00;19.10;;;7.30;76.40;;;;;;5035647;28;20204;-70
2022/03/31 04:27:15;;;;;;;35.03;22.02;;;7.30;76.30;;;;;;5037566;28;20225;-70
2022/03/31 04:29:43;;;;;;;32.17;19.98;;;7.30;76.50;;;;;;5040631;28;20210;-68
2022/03/31 04:32:12;;;;;;;35.00;21.40;;;7.30;76.40;;;;;;5041288;28;20240;-70
2022/03/31 04:34:40;;;;;;;36.90;23.35;;;7.40;76.50;;;;;;5037036;28;20223;-70
2022/03/31 04:37:08;;;;;;;29.65;20.85;;;7.40;76.50;;;;;;5037351;28;20609;-68
2022/03/31 04:39:36;;;;;;;32.67;21.55;;;7.40;76.50;;;;;;5038651;28;20291;-67
2022/03/31 04:42:05;;;;;;;34.28;22.45;;;7.40;76.60;;;;;;5038294;28;20924;-68
2022/03/31 04:44:37;;;;;;;40.70;25.40;;;7.50;76.40;;;;;;5038879;28;20661;-70
2022/03/31 04:47:06;;;;;;;35.15;21.23;;;7.40;76.40;;;;;;5038133;28;20228;-67
2022/03/31 04:49:34;;;;;;;35.22;21.67;;;7.50;76.60;;;;;;5038847;28;20204;-68
2022/03/31 04:52:02;;;;;;;39.83;23.80;;;7.60;76.60;;;;;;5038669;28;20227;-70
2022/03/31 04:54:30;;;;;;;32.50;21.85;;;7.60;76.40;;;;;;5032036;28;20887;-68
2022/03/31 04:56:58;;;;;;;39.42;23.50;;;7.60;76.40;;;;;;5038173;28;20261;-70
2022/03/31 04:59:26;;;;;;;36.45;23.58;;;7.60;76.40;;;;;;5035325;28;20258;-68
2022/03/31 05:01:55;;;;;;;36.45;21.65;;;7.60;76.50;;;;;;5032108;28;20229;-69
2022/03/31 05:04:23;;;;;;;38.40;24.75;;;7.60;76.50;;;;;;5028382;28;20784;-68
2022/03/31 05:06:51;;;;;;;39.57;24.10;;;7.60;76.40;;;;;;5032625;28;20229;-68
2022/03/31 05:09:21;;;;;;;39.50;23.85;;;7.60;76.40;;;;;;5036117;28;20501;-71
2022/03/31 05:11:49;;;;;;;47.92;31.60;;;7.60;76.30;;;;;;5035723;28;20284;-69
2022/03/31 05:14:17;;;;;;;34.13;23.33;;;7.50;76.30;;;;;;5035532;28;20213;-70
2022/03/31 05:16:45;;;;;;;35.55;22.42;;;7.50;76.40;;;;;;5015461;28;20231;-69
2022/03/31 05:19:14;;;;;;;35.65;23.45;;;7.50;76.40;;;;;;5031444;28;20351;-68
2022/03/31 05:21:49;;;;;;;37.72;23.92;;;7.50;76.40;;;;;;5032944;28;20829;-69
2022/03/31 05:24:17;;;;;;;40.70;25.70;;;7.50;76.40;;;;;;5036513;28;20209;-68
2022/03/31 05:26:46;;;;;;;37.65;23.52;;;7.50;76.50;;;;;;5038374;28;20487;-68
2022/03/31 05:29:14;;;;;;;33.13;22.27;;;7.60;76.50;;;;;;5035035;28;20201;-70
2022/03/31 05:31:42;;;;;;;33.15;22.88;;;7.60;76.50;;;;;;5040198;28;20510;-71
2022/03/31 05:34:10;;;;;;;40.25;25.38;;;7.60;76.50;;;;;;5039442;28;20194;-69
2022/03/31 05:36:39;;;;;;;37.42;23.38;;;7.60;76.50;;;;;;5035826;28;20225;-70
2022/03/31 05:39:11;;;;;;;41.77;24.37;;;7.60;76.30;;;;;;5037780;28;20239;-70
2022/03/31 05:41:39;;;;;;;42.53;26.10;;;7.60;76.40;;;;;;5036320;28;20496;-68
2022/03/31 05:44:07;;;;;;;37.90;24.48;;;7.60;76.40;;;;;;5036095;28;20460;-67
2022/03/31 05:46:35;;;;;;;35.63;23.02;;;7.60;76.30;;;;;;5022372;28;20243;-70
2022/03/31 05:49:04;;;;;;;36.20;24.42;;;7.60;76.30;;;;;;5037987;28;20654;-67
2022/03/31 05:51:32;;;;;;;43.30;26.67;;;7.60;76.50;;;;;;5037949;28;20205;-68
2022/03/31 05:54:03;;;;;;;41.65;27.13;;;7.60;76.60;;;;;;5037256;28;20208;-67
2022/03/31 05:56:31;;;;;;;45.03;26.15;;;7.60;76.40;;;;;;5037493;28;20209;-68
2022/03/31 05:58:59;;;;;;;40.42;24.70;;;7.60;76.50;;;;;;5039346;28;20675;-69
2022/03/31 06:01:27;;;;;;;37.45;24.00;;;7.60;76.50;;;;;;5037129;28;20658;-67
2022/03/31 06:03:55;;;;;;;42.08;25.52;;;7.60;76.40;;;;;;5022262;28;20217;-68
2022/03/31 06:06:25;;;;;;;43.30;25.80;;;7.60;76.30;;;;;;5039397;28;20225;-69
2022/03/31 06:08:53;;;;;;;55.10;29.42;;;7.60;76.40;;;;;;5032611;28;20213;-69
2022/03/31 06:11:23;;;;;;;34.63;23.20;;;7.60;76.40;;;;;;5032972;28;20628;-69
2022/03/31 06:13:51;;;;;;;36.42;24.60;;;7.60;76.40;;;;;;5031870;28;20206;-69
2022/03/31 06:16:19;;;;;;;38.80;24.73;;;7.60;76.40;;;;;;5033642;28;20228;-69
2022/03/31 06:18:47;;;;;;;35.92;22.33;;;7.60;76.40;;;;;;5023587;28;20663;-69
2022/03/31 06:21:16;;;;;;;40.88;25.10;;;7.70;76.30;;;;;;5036175;28;20208;-69
2022/03/31 06:23:44;;;;;;;36.88;24.98;;;7.70;76.30;;;;;;5035250;28;20693;-69
2022/03/31 06:26:12;;;;;;;37.60;24.60;;;7.70;76.30;;;;;;5038442;28;20308;-70
2022/03/31 06:28:41;;;;;;;41.88;25.67;;;7.70;76.20;;;;;;5035263;28;20209;-69
2022/03/31 06:31:10;;;;;;;41.08;24.35;;;7.60;76.20;;;;;;5039410;28;20579;-69
2022/03/31 06:33:38;;;;;;;39.17;23.50;;;7.60;76.20;;;;;;5032989;28;20206;-69
2022/03/31 06:36:06;;;;;;;41.67;23.70;;;7.60;76.20;;;;;;5034067;28;20236;-69
2022/03/31 06:38:34;;;;;;;38.20;23.42;;;7.60;76.20;;;;;;5036082;28;20236;-69
2022/03/31 06:41:10;;;;;;;36.70;24.75;;;7.50;76.20;;;;;;5034840;28;20220;-69
2022/03/31 06:43:39;;;;;;;38.88;25.55;;;7.50;76.20;;;;;;5036604;28;20196;-69
2022/03/31 06:46:09;;;;;;;43.72;27.55;;;7.40;76.20;;;;;;5035854;28;20283;-69
2022/03/31 06:48:41;;;;;;;50.85;28.08;;;7.40;76.30;;;;;;5034820;28;20288;-69
2022/03/31 06:51:11;;;;;;;44.67;28.33;;;7.40;76.40;;;;;;5033297;28;20212;-70
2022/03/31 06:53:39;;;;;;;38.58;24.25;;;7.40;76.60;;;;;;5035383;28;20303;-70
2022/03/31 06:56:08;;;;;;;39.28;25.77;;;7.40;76.50;;;;;;5035324;28;20259;-70
2022/03/31 06:58:36;;;;;;;46.22;27.40;;;7.50;76.60;;;;;;5032904;28;21070;-70
2022/03/31 07:01:05;;;;;;;40.85;25.33;;;7.50;76.60;;;;;;5035842;28;20221;-70
2022/03/31 07:03:36;;;;;;;41.65;26.33;;;7.50;76.50;;;;;;5036441;28;20212;-70
2022/03/31 07:06:07;;;;;;;42.03;25.40;;;7.50;76.60;;;;;;5035173;28;20228;-70
2022/03/31 07:08:35;;;;;;;39.28;25.38;;;7.50;76.60;;;;;;5037852;28;20489;-70
2022/03/31 07:11:04;;;;;;;42.13;25.98;;;7.50;76.80;;;;;;5033244;28;20212;-70
2022/03/31 07:13:32;;;;;;;44.70;27.38;;;7.60;76.80;;;;;;5032668;28;20227;-70
2022/03/31 07:16:00;;;;;;;38.63;24.52;;;7.60;76.70;;;;;;5034053;28;20225;-70
2022/03/31 07:18:28;;;;;;;43.80;26.13;;;7.60;76.90;;;;;;5039605;28;20632;-70
2022/03/31 07:20:57;;;;;;;44.92;26.83;;;7.60;76.90;;;;;;5037166;28;20209;-70
2022/03/31 07:23:26;;;;;;;40.05;27.02;;;7.60;76.80;;;;;;5036671;28;20220;-70
2022/03/31 07:25:55;;;;;;;42.33;26.50;;;7.60;76.80;;;;;;5042603;28;20988;-70
2022/03/31 07:28:23;;;;;;;39.08;26.40;;;7.70;76.90;;;;;;5035142;28;20231;-70
2022/03/31 07:30:52;;;;;;;41.58;25.95;;;7.70;76.90;;;;;;5041629;28;20232;-69
2022/03/31 07:33:21;;;;;;;39.88;26.83;;;7.80;77.20;;;;;;5040474;28;20567;-69
2022/03/31 07:35:49;;;;;;;44.78;28.50;;;7.80;76.90;;;;;;5038915;28;20697;-69
2022/03/31 07:38:19;;;;;;;42.55;27.15;;;7.80;76.80;;;;;;5039245;28;20297;-69
2022/03/31 07:40:48;;;;;;;47.63;28.80;;;7.80;76.70;;;;;;5036458;28;20213;-70
2022/03/31 07:43:16;;;;;;;44.73;27.57;;;7.80;76.80;;;;;;5036098;28;20467;-69
2022/03/31 07:45:46;;;;;;;39.40;28.17;;;7.80;76.80;;;;;;5037290;28;20463;-69
2022/03/31 07:48:15;;;;;;;45.78;28.67;;;7.80;76.90;;;;;;5040517;28;20209;-69
2022/03/31 07:50:44;;;;;;;50.97;27.85;;;7.80;76.90;;;;;;5039139;28;20224;-70
2022/03/31 07:53:12;;;;;;;38.50;26.20;;;7.80;77.00;;;;;;5044921;28;20213;-69
2022/03/31 07:55:43;;;;;;;42.57;28.40;;;7.80;77.00;;;;;;5043521;28;20464;-69
2022/03/31 07:58:11;;;;;;;42.97;28.90;;;7.80;76.90;;;;;;5036605;28;20485;-69
2022/03/31 08:00:39;;;;;;;62.60;37.03;;;7.80;77.00;;;;;;5038982;28;20471;-68
2022/03/31 08:03:07;;;;;;;46.33;29.58;;;7.80;77.20;;;;;;5022770;28;20470;-70
2022/03/31 08:05:38;;;;;;;42.90;27.07;;;7.80;77.30;;;;;;5040027;28;20200;-71
2022/03/31 08:08:06;;;;;;;48.13;30.90;;;7.90;77.30;;;;;;5039010;28;20490;-70
2022/03/31 08:10:34;;;;;;;53.70;31.73;;;7.90;77.40;;;;;;5035756;28;20205;-70
2022/03/31 08:13:04;;;;;;;44.78;28.25;;;8.00;77.30;;;;;;5036559;28;20209;-70
2022/03/31 08:15:32;;;;;;;45.87;28.03;;;8.00;77.20;;;;;;5036679;28;20263;-70
2022/03/31 08:18:00;;;;;;;46.50;29.13;;;8.00;77.20;;;;;;5031310;28;20905;-70
2022/03/31 08:20:28;;;;;;;48.80;30.10;;;8.00;77.10;;;;;;5041155;28;20470;-71
2022/03/31 08:22:57;;;;;;;42.10;28.10;;;8.00;77.20;;;;;;5040591;28;21824;-70
2022/03/31 08:25:25;;;;;;;52.37;31.83;;;8.10;77.20;;;;;;5040068;28;20477;-70
2022/03/31 08:27:53;;;;;;;44.70;27.60;;;8.10;77.10;;;;;;5031861;28;20467;-70
2022/03/31 08:30:23;;;;;;;46.73;30.40;;;8.10;77.20;;;;;;5033379;28;20471;-69
2022/03/31 08:32:52;;;;;;;40.27;28.13;;;8.10;77.30;;;;;;5040483;28;21036;-69
2022/03/31 08:35:24;;;;;;;46.03;31.20;;;8.10;77.30;;;;;;5041245;28;20450;-69
2022/03/31 08:37:52;;;;;;;50.13;29.50;;;8.10;77.40;;;;;;5037163;28;20831;-70
2022/03/31 08:40:20;;;;;;;58.37;32.00;;;8.10;77.40;;;;;;5036710;28;20459;-69
2022/03/31 08:42:48;;;;;;;42.40;27.13;;;8.20;77.40;;;;;;5033828;28;20982;-69
2022/03/31 08:45:19;;;;;;;47.30;29.87;;;8.20;77.30;;;;;;5037681;28;20459;-69
2022/03/31 08:47:50;;;;;;;51.70;33.20;;;8.20;77.30;;;;;;5040389;28;20479;-68
2022/03/31 08:50:19;;;;;;;50.73;30.60;;;8.20;77.30;;;;;;5039897;28;21112;-69
2022/03/31 08:52:47;;;;;;;41.63;28.13;;;8.20;77.50;;;;;;5039782;28;20471;-71
2022/03/31 08:55:15;;;;;;;44.47;29.07;;;8.20;77.50;;;;;;5041266;28;20447;-71
2022/03/31 08:57:45;;;;;;;49.27;27.80;;;8.30;77.60;;;;;;5047635;28;20901;-70
2022/03/31 09:00:15;;;;;;;44.50;28.50;;;8.30;77.50;;;;;;5044181;28;20476;-70
2022/03/31 09:02:55;;;;;;;47.30;29.27;;;8.30;77.40;;;;;;5046892;28;20455;-70
2022/03/31 09:05:23;;;;;;;48.47;30.25;;;8.30;77.50;;;;;;5044555;28;20543;-70
2022/03/31 09:07:56;;;;;;;44.00;28.43;;;8.40;77.30;;;;;;5035912;28;20729;-69
2022/03/31 09:10:29;;;;;;;46.63;29.40;;;8.40;77.30;;;;;;5037383;28;20455;-69
2022/03/31 09:12:57;;;;;;;46.57;28.30;;;8.40;77.40;;;;;;5037937;28;20443;-69
2022/03/31 09:15:34;;;;;;;44.07;28.30;;;8.40;77.30;;;;;;5039175;28;20474;-69
2022/03/31 09:18:04;;;;;;;43.67;27.80;;;8.40;77.30;;;;;;5029760;28;20447;-69
2022/03/31 09:20:40;;;;;;;47.00;28.47;;;8.40;77.30;;;;;;5035583;28;20475;-69
2022/03/31 09:23:15;;;;;;;42.90;27.37;;;8.40;77.40;;;;;;5034703;28;20444;-69
2022/03/31 09:25:43;;;;;;;48.75;30.70;;;8.40;77.40;;;;;;5038459;28;20462;-69
2022/03/31 09:28:16;;;;;;;42.20;27.57;;;8.40;77.40;;;;;;5035038;28;20236;-69
2022/03/31 09:30:48;;;;;;;43.00;27.40;;;8.40;77.40;;;;;;5033581;28;20487;-69
2022/03/31 09:33:29;;;;;;;42.60;27.80;;;8.40;77.40;;;;;;5039412;28;20478;-69
2022/03/31 09:35:59;;;;;;;40.70;27.27;;;8.40;77.30;;;;;;5034236;28;20511;-69
2022/03/31 09:38:27;;;;;;;47.77;28.60;;;8.50;77.40;;;;;;5035792;28;20488;-68
2022/03/31 09:40:55;;;;;;;44.20;27.50;;;8.50;77.40;;;;;;5039338;28;20451;-68
2022/03/31 09:43:23;;;;;;;48.83;28.40;;;8.50;77.40;;;;;;5036609;28;20932;-68
2022/03/31 09:45:51;;;;;;;44.37;30.30;;;8.50;77.40;;;;;;5029786;28;20483;-69
2022/03/31 09:48:23;;;;;;;46.27;30.50;;;8.50;77.40;;;;;;5033936;28;20557;-68
2022/03/31 09:50:53;;;;;;;49.07;29.50;;;8.50;77.60;;;;;;5036089;28;20465;-69
2022/03/31 09:53:22;;;;;;;46.00;28.87;;;8.60;77.50;;;;;;5037836;28;20487;-67
2022/03/31 09:55:52;;;;;;;41.87;27.67;;;8.60;77.70;;;;;;5035385;28;20451;-68
2022/03/31 09:58:21;;;;;;;42.90;27.83;;;8.70;77.60;;;;;;5029995;28;20455;-68
2022/03/31 10:00:49;;;;;;;46.00;28.03;;;8.70;77.50;;;;;;5034173;28;20486;-68
2022/03/31 10:03:17;;;;;;;46.00;27.80;;;8.80;77.50;;;;;;5038131;28;21054;-69
2022/03/31 10:05:48;;;;;;;43.40;27.70;;;8.80;77.60;;;;;;5039126;28;20475;-68
2022/03/31 10:08:18;;;;;;;42.53;28.50;;;8.80;77.40;;;;;;5034764;28;21010;-70
2022/03/31 10:10:47;;;;;;;42.20;28.70;;;8.80;77.40;;;;;;5035798;28;20452;-69
2022/03/31 10:13:21;;;;;;;47.57;26.57;;;8.80;77.40;;;;;;5017948;28;20466;-69
2022/03/31 10:15:56;;;;;;;45.17;29.23;;;8.80;77.30;;;;;;5031154;28;20471;-69
2022/03/31 10:18:24;;;;;;;46.00;28.30;;;8.80;77.30;;;;;;5030510;28;21169;-69
2022/03/31 10:20:56;;;;;;;45.50;28.87;;;8.90;77.30;;;;;;5031156;28;20530;-69
2022/03/31 10:26:27;;;;;;;40.20;24.63;;;8.90;77.50;;;;;;5032168;28;20483;-69
2022/03/31 10:28:56;;;;;;;42.07;26.23;;;9.00;77.50;;;;;;5032217;28;20456;-69
2022/03/31 10:31:35;;;;;;;40.27;26.37;;;9.00;77.50;;;;;;5034429;28;20533;-69
2022/03/31 10:34:06;;;;;;;39.73;24.97;;;9.10;77.50;;;;;;5035457;28;21017;-69
2022/03/31 10:36:39;;;;;;;39.43;25.00;;;9.10;77.20;;;;;;5037623;28;20472;-69
2022/03/31 10:39:17;;;;;;;37.90;24.80;;;9.10;77.20;;;;;;5031599;28;20480;-70
2022/03/31 10:41:46;;;;;;;36.23;23.80;;;9.10;77.20;;;;;;5033609;28;20453;-70
2022/03/31 10:44:19;;;;;;;39.67;24.33;;;9.20;77.20;;;;;;5032352;28;21020;-70
2022/03/31 10:47:00;;;;;;;44.17;25.90;;;9.20;77.20;;;;;;5036564;28;20471;-69
2022/03/31 10:49:30;;;;;;;40.37;26.20;;;9.20;77.20;;;;;;5035372;28;20454;-69
2022/03/31 10:51:59;;;;;;;40.43;25.30;;;9.20;77.20;;;;;;5033322;28;21160;-69
2022/03/31 10:54:31;;;;;;;38.97;25.23;;;9.30;77.10;;;;;;5033567;28;20456;-69
2022/03/31 10:57:05;;;;;;;43.33;26.73;;;9.30;77.10;;;;;;5033829;28;20575;-69
2022/03/31 10:59:34;;;;;;;41.77;27.53;;;9.30;76.70;;;;;;5035559;28;20497;-69
2022/03/31 11:02:10;;;;;;;39.87;24.50;;;9.30;76.90;;;;;;5034059;28;20477;-69
2022/03/31 11:04:49;;;;;;;38.97;25.50;;;9.20;77.00;;;;;;5011716;28;20463;-69
2022/03/31 11:07:20;;;;;;;40.37;25.00;;;9.30;77.10;;;;;;5031082;28;20464;-70
2022/03/31 11:10:00;;;;;;;41.67;23.50;;;9.30;77.10;;;;;;5028868;28;20444;-69
2022/03/31 11:12:29;;;;;;;40.40;24.53;;;9.40;77.00;;;;;;5028521;28;20539;-69
2022/03/31 11:14:59;;;;;;;35.70;22.60;;;9.40;76.90;;;;;;5030600;28;20912;-69
2022/03/31 11:17:28;;;;;;;34.97;22.73;;;9.40;76.80;;;;;;5028719;28;20550;-69
2022/03/31 11:19:57;;;;;;;32.63;19.70;;;9.40;76.80;;;;;;5027562;28;20480;-70
2022/03/31 11:22:27;;;;;;;30.70;20.50;;;9.40;76.80;;;;;;5034196;28;20447;-69
2022/03/31 11:25:07;;;;;;;37.80;22.93;;;9.50;76.70;;;;;;5034983;28;20455;-69
2022/03/31 11:27:41;;;;;;;38.77;26.43;;;9.50;76.60;;;;;;5032416;28;21031;-69
2022/03/31 11:30:11;;;;;;;35.70;22.50;;;9.50;76.60;;;;;;5013653;28;20534;-69
2022/03/31 11:32:41;;;;;;;34.60;21.30;;;9.50;76.60;;;;;;5030356;28;20470;-69
2022/03/31 11:35:15;;;;;;;30.17;20.93;;;9.50;76.70;;;;;;5033782;28;20447;-70
2022/03/31 11:37:47;;;;;;;35.53;21.90;;;9.50;76.30;;;;;;5032821;28;20504;-69
2022/03/31 11:40:25;;;;;;;33.57;21.13;;;9.50;76.40;;;;;;5032743;28;20482;-69
2022/03/31 11:42:55;;;;;;;35.13;23.00;;;9.50;76.40;;;;;;5028546;28;20448;-70
2022/03/31 11:45:29;;;;;;;33.10;21.70;;;9.50;76.40;;;;;;5028859;28;20461;-69
2022/03/31 11:47:59;;;;;;;33.80;22.53;;;9.50;76.30;;;;;;5033259;28;20999;-70
2022/03/31 11:50:29;;;;;;;37.47;25.13;;;9.50;76.30;;;;;;5035059;28;20958;-69
2022/03/31 11:53:17;;;;;;;58.17;39.93;;;9.50;76.30;;;;;;5035621;28;20448;-69
2022/03/31 11:55:57;;;;;;;50.43;29.00;;;9.50;76.30;;;;;;5036040;28;20464;-70
2022/03/31 11:58:26;;;;;;;38.33;26.87;;;9.40;76.40;;;;;;5035013;28;20996;-69
2022/03/31 12:01:01;;;;;;;48.80;33.73;;;9.40;76.30;;;;;;5035623;28;21004;-70
2022/03/31 12:03:34;;;;;;;35.33;23.53;;;9.40;76.20;;;;;;5037090;28;20446;-70
2022/03/31 12:06:05;;;;;;;35.00;23.93;;;9.40;76.30;;;;;;5036608;28;20498;-69
2022/03/31 12:08:35;;;;;;;32.40;22.00;;;9.40;76.30;;;;;;5036043;28;20534;-70
2022/03/31 12:11:05;;;;;;;38.93;24.47;;;9.40;76.30;;;;;;5039260;28;20450;-69
2022/03/31 12:13:33;;;;;;;41.57;30.20;;;9.30;76.30;;;;;;5038244;28;20546;-69
2022/03/31 12:16:06;;;;;;;33.53;22.50;;;9.40;76.30;;;;;;5034802;28;20472;-70
2022/03/31 12:18:36;;;;;;;29.93;20.80;;;9.40;76.40;;;;;;5038483;28;20994;-69
2022/03/31 12:21:07;;;;;;;37.60;24.60;;;9.40;76.50;;;;;;5038458;28;20475;-69
2022/03/31 12:23:41;;;;;;;36.37;24.43;;;9.40;76.30;;;;;;5036403;28;20471;-69
2022/03/31 12:26:31;;;;;;;30.73;20.70;;;9.40;76.20;;;;;;5023140;28;20480;-69
2022/03/31 12:29:01;;;;;;;30.80;20.97;;;9.30;76.20;;;;;;5039340;28;20459;-69
2022/03/31 12:31:31;;;;;;;32.93;21.73;;;9.30;76.10;;;;;;5036029;28;20567;-69
2022/03/31 12:34:00;;;;;;;33.23;22.90;;;9.30;76.10;;;;;;5036492;28;21186;-69
2022/03/31 12:36:31;;;;;;;31.80;22.40;;;9.30;76.20;;;;;;5036284;28;21047;-69
2022/03/31 12:39:02;;;;;;;34.30;21.80;;;9.30;76.30;;;;;;5034128;28;20620;-69
2022/03/31 12:41:34;;;;;;;37.50;22.97;;;9.30;76.40;;;;;;5039832;28;20485;-69
2022/03/31 12:44:04;;;;;;;35.20;23.00;;;9.30;76.30;;;;;;5038585;28;20451;-69
2022/03/31 12:46:35;;;;;;;32.00;20.53;;;9.30;76.40;;;;;;5036990;28;21018;-69
2022/03/31 12:49:06;;;;;;;37.80;25.33;;;9.30;76.30;;;;;;5037168;28;20464;-69
2022/03/31 12:51:46;;;;;;;33.57;21.10;;;9.30;76.20;;;;;;5036338;28;20443;-69
2022/03/31 12:54:26;;;;;;;35.70;22.73;;;9.30;76.30;;;;;;5033814;28;20477;-70